ftmx53

TAF MMCL 090433Z 0906/1006 00000KT P6SM SKC 
         BECMG 0912/0913 SCT100 
         FM091800 24010KT P6SM SCT100 BKN250=
TAF MMHO 090433Z 0906/1006 22005KT P6SM BKN090 BKN200 
         FM091700 20010KT P6SM SCT080 BKN200 
         FM091800 09005KT P6SM SCT080 BKN200 
         FM100300 220010KT P6SM VC -RA SCT030 BKN080 BKN200=
TAF MMLP 090433Z 0906/1006 00000KT P6SM SCT100 BKN200 
         FM091800 20010KT P6SM BKN200 
         FM100300 00000KT P6SM SCT100 BKN200=
TAF MMML 090433Z 0906/1006 22010KT P6SM SCT120 
         FM091800 06005KT P6SM SCT020 BKN120 
         TEMPO 1002/1004 5SM -RA BKN020 BKN100=
TAF MMMZ 090433Z 0906/1012 00000KT P6SM SKC TX32/0921Z TN15/0912Z 
         FM091800 30010KT P6SM SCT100 BKN250 
         FM100200 02005KT P6SM SCT250=
TAF MMTJ 090433Z 0906/1012 00000KT 4SM HZ BKN010 TX20/0922Z TN10/0912Z
         FM091000 30005KT 3SM BR VC -RA OVC010 
         TEMPO 0911/0915 3SM -RA BR BKN006 OVC010 
         FM091700 25010KT 4SM -RA BR OVC008 
         TEMPO 0922/1002 2SM -RA BR OVC008=